Time;durP1;ratioP1;P1;durP2;ratioP2;P2;SDS_P1;SDS_P2;PMS_P1;PMS_P2;Temp;Humidity;BMP_temperature;BMP_pressure;BME280_temperature;BME280_humidity;BME280_pressure;Samples;Min_cycle;Max_cycle;Signal;HPM_P1;HPM_P2
2021/03/12 00:01:36;;;;;;;3.70;0.50;;;8.70;99.90;;;;;;21072151;28;20511;-76
2021/03/12 00:11:37;;;;;;;6.40;0.73;;;8.80;99.90;;;;;;21053491;28;20131;-78
2021/03/12 00:21:38;;;;;;;4.97;0.70;;;7.80;99.90;;;;;;21071432;28;20028;-77
2021/03/12 00:31:39;;;;;;;2.10;0.50;;;7.40;99.90;;;;;;21075944;28;20039;-76
2021/03/12 00:41:40;;;;;;;1.77;0.63;;;7.30;99.90;;;;;;21067494;28;20036;-76
2021/03/12 00:51:41;;;;;;;;;;;7.20;99.90;;;;;;21050733;28;20036;-77
2021/03/12 01:01:48;;;;;;;6.35;1.05;;;7.20;99.90;;;;;;21065842;28;19915;-77
2021/03/12 01:11:49;;;;;;;6.05;0.88;;;7.40;99.90;;;;;;21064773;28;20079;-77
2021/03/12 01:21:50;;;;;;;3.00;0.87;;;7.40;99.90;;;;;;21047826;28;20028;-76
2021/03/12 01:31:52;;;;;;;7.50;0.60;;;7.50;99.90;;;;;;21063554;28;20028;-77
2021/03/12 01:41:56;;;;;;;3.47;0.70;;;7.80;99.90;;;;;;21061225;28;20574;-76
2021/03/12 01:52:04;;;;;;;3.13;0.55;;;7.80;99.90;;;;;;21045618;28;20031;-77
2021/03/12 02:02:05;;;;;;;1.33;0.50;;;7.70;99.90;;;;;;21061085;28;20035;-77
2021/03/12 02:12:32;;;;;;;1.17;0.50;;;7.70;99.90;;;;;;21045251;28;20055;-77
2021/03/12 02:22:36;;;;;;;5.63;0.65;;;7.70;99.90;;;;;;21059864;28;20036;-77
2021/03/12 02:32:42;;;;;;;4.70;0.50;;;7.70;99.90;;;;;;21058537;28;20031;-77
2021/03/12 02:42:49;;;;;;;2.72;0.60;;;7.70;99.90;;;;;;21057873;28;20145;-77
2021/03/12 02:52:52;;;;;;;3.43;0.60;;;7.50;99.90;;;;;;21074819;28;20111;-77
2021/03/12 03:02:57;;;;;;;5.68;1.33;;;7.50;99.90;;;;;;21056920;28;20061;-77
2021/03/12 03:13:21;;;;;;;3.20;0.82;;;7.40;99.90;;;;;;21065955;28;20032;-76
2021/03/12 03:23:23;;;;;;;3.20;0.60;;;7.30;99.90;;;;;;21055782;28;20024;-77
2021/03/12 03:33:25;;;;;;;8.43;0.93;;;6.80;99.90;;;;;;21055134;28;20818;-76
2021/03/12 03:43:31;;;;;;;2.40;0.80;;;6.80;99.90;;;;;;21084172;22;20630;-77
2021/03/12 03:53:34;;;;;;;11.90;0.90;;;6.90;99.90;;;;;;21070141;28;20063;-79
2021/03/12 04:03:36;;;;;;;4.25;0.60;;;6.90;99.90;;;;;;21016751;28;20035;-79
2021/03/12 04:13:40;;;;;;;3.97;0.90;;;6.70;99.90;;;;;;20986744;28;20032;-81
2021/03/12 04:23:44;;;;;;;2.83;0.85;;;6.60;99.90;;;;;;20985084;28;20029;-80
2021/03/12 04:33:46;;;;;;;7.70;0.77;;;6.50;99.90;;;;;;21025995;28;20032;-81
2021/03/12 04:43:48;;;;;;;1.67;0.40;;;6.50;99.90;;;;;;21054296;28;20031;-78
2021/03/12 04:53:49;;;;;;;6.63;0.77;;;5.80;99.90;;;;;;21084103;28;20024;-79
2021/03/12 05:03:53;;;;;;;5.28;0.95;;;5.40;99.90;;;;;;21069691;28;20122;-79
2021/03/12 05:13:54;;;;;;;7.90;0.73;;;5.20;99.90;;;;;;21067628;28;20054;-78
2021/03/12 05:24:01;;;;;;;1.88;0.93;;;5.10;99.90;;;;;;21071332;28;20052;-79
2021/03/12 05:34:02;;;;;;;8.63;1.10;;;5.10;99.90;;;;;;21086736;28;20658;-81
2021/03/12 05:44:06;;;;;;;7.97;0.95;;;5.10;99.90;;;;;;21084808;28;20036;-80
2021/03/12 05:54:08;;;;;;;8.27;1.13;;;5.00;99.90;;;;;;21081708;28;20020;-80
2021/03/12 06:04:12;;;;;;;6.22;1.27;;;5.20;99.90;;;;;;21064318;28;20111;-81
2021/03/12 06:14:13;;;;;;;8.50;1.25;;;5.40;99.90;;;;;;21061366;28;20412;-79
2021/03/12 06:24:30;;;;;;;6.15;1.02;;;5.50;99.90;;;;;;21065641;28;20032;-78
2021/03/12 06:35:02;;;;;;;5.05;1.15;;;5.50;99.90;;;;;;21093032;28;20055;-79
2021/03/12 06:45:21;;;;;;;8.60;1.30;;;5.70;99.90;;;;;;21097567;28;20035;-79
2021/03/12 06:55:22;;;;;;;8.45;1.65;;;6.00;99.90;;;;;;21077530;28;20054;-78
2021/03/12 07:05:33;;;;;;;8.68;0.90;;;6.00;99.90;;;;;;21057930;28;20062;-81
2021/03/12 07:15:43;;;;;;;3.10;0.93;;;6.20;99.90;;;;;;21054929;28;20633;-80
2021/03/12 07:26:10;;;;;;;3.17;1.00;;;6.50;99.90;;;;;;21068953;28;20064;-81
2021/03/12 07:36:14;;;;;;;5.30;0.95;;;7.00;99.90;;;;;;21058845;28;20028;-82
2021/03/12 07:46:25;;;;;;;4.25;0.70;;;7.40;99.90;;;;;;21089865;28;20036;-82
2021/03/12 07:56:43;;;;;;;6.22;1.00;;;8.00;99.90;;;;;;21089506;28;20085;-83
2021/03/12 08:07:20;;;;;;;4.05;1.15;;;8.40;99.90;;;;;;21092121;28;20032;-81
2021/03/12 08:17:24;;;;;;;20.90;1.47;;;9.10;99.90;;;;;;21094972;28;20032;-79
2021/03/12 08:27:48;;;;;;;7.00;1.65;;;9.30;99.90;;;;;;21096110;28;20107;-80
2021/03/12 08:38:28;;;;;;;5.80;1.10;;;9.50;99.90;;;;;;21057821;28;20040;-81
2021/03/12 08:49:10;;;;;;;2.88;0.75;;;9.50;99.90;;;;;;20849401;28;20114;-80
2021/03/12 08:59:12;;;;;;;3.22;0.80;;;10.00;99.90;;;;;;21069550;28;20028;-80
2021/03/12 09:09:39;;;;;;;10.93;1.45;;;9.40;99.90;;;;;;21091271;28;20024;-83
2021/03/12 09:20:04;;;;;;;4.18;0.60;;;9.70;99.90;;;;;;21097289;28;20035;-83
2021/03/12 09:30:31;;;;;;;7.95;1.45;;;9.60;99.90;;;;;;21089718;28;20024;-83
2021/03/12 09:40:43;;;;;;;7.63;1.02;;;10.20;99.90;;;;;;21078236;22;20044;-77
2021/03/12 09:50:49;;;;;;;7.05;0.65;;;9.10;99.90;;;;;;21053764;28;20024;-78
2021/03/12 10:00:51;;;;;;;4.05;0.60;;;9.30;99.90;;;;;;21068870;28;20445;-78
2021/03/12 10:10:56;;;;;;;1.77;0.70;;;10.30;99.90;;;;;;21066502;28;20036;-76
2021/03/12 10:21:08;;;;;;;7.38;0.77;;;10.40;99.90;;;;;;21066248;28;20028;-76
2021/03/12 10:31:09;;;;;;;4.18;0.90;;;11.20;99.90;;;;;;21083640;28;20494;-75
2021/03/12 10:41:22;;;;;;;3.33;0.95;;;11.70;99.90;;;;;;21082884;28;20134;-78
2021/03/12 10:51:40;;;;;;;5.57;0.73;;;11.80;99.90;;;;;;21064797;28;20032;-78
2021/03/12 11:01:45;;;;;;;7.35;1.33;;;11.50;99.90;;;;;;21063658;28;20042;-76
2021/03/12 11:11:46;;;;;;;3.17;0.90;;;12.10;99.90;;;;;;21044616;28;20034;-77
2021/03/12 11:21:47;;;;;;;4.07;0.93;;;10.70;99.90;;;;;;21080498;28;20424;-77
2021/03/12 11:31:48;;;;;;;1.60;0.50;;;10.90;99.90;;;;;;21060018;28;20084;-77
2021/03/12 11:41:49;;;;;;;2.60;1.20;;;11.10;99.90;;;;;;21077401;28;20436;-75
2021/03/12 11:51:52;;;;;;;4.15;0.80;;;12.10;99.90;;;;;;21041182;28;20129;-78
2021/03/12 12:01:56;;;;;;;3.50;0.60;;;13.10;99.90;;;;;;21080578;28;20040;-76
2021/03/12 12:11:57;;;;;;;4.63;0.85;;;13.30;99.90;;;;;;21080832;28;20522;-77
2021/03/12 12:21:58;;;;;;;3.80;0.70;;;12.70;99.90;;;;;;21066631;28;20020;-76
2021/03/12 12:31:59;;;;;;;5.80;0.95;;;12.40;99.90;;;;;;21095934;28;20036;-77
2021/03/12 12:42:00;;;;;;;6.88;0.80;;;12.80;99.90;;;;;;21079387;28;20375;-77
2021/03/12 12:52:02;;;;;;;4.72;0.63;;;11.60;99.90;;;;;;21073634;28;20059;-77
2021/03/12 13:02:03;;;;;;;8.10;1.02;;;12.50;99.90;;;;;;21073926;28;20115;-76
2021/03/12 13:12:05;;;;;;;4.90;1.10;;;12.80;99.90;;;;;;21090238;28;20032;-76
2021/03/12 13:22:06;;;;;;;3.87;1.07;;;11.80;99.90;;;;;;21093156;28;20028;-76
2021/03/12 13:32:07;;;;;;;3.20;0.95;;;13.10;99.90;;;;;;21056383;28;20032;-76
2021/03/12 13:42:08;;;;;;;14.68;6.53;;;12.60;99.90;;;;;;21058972;28;20039;-78
2021/03/12 13:52:09;;;;;;;1.70;0.67;;;13.60;99.90;;;;;;21079181;28;20123;-78
2021/03/12 14:02:10;;;;;;;6.80;1.02;;;12.80;99.90;;;;;;21086968;28;20020;-77
2021/03/12 14:12:13;;;;;;;2.05;0.65;;;13.00;99.70;;;;;;21072743;28;20031;-77
2021/03/12 14:22:14;;;;;;;4.95;0.60;;;12.90;98.60;;;;;;20991318;28;20032;-78
2021/03/12 14:32:15;;;;;;;7.35;0.65;;;12.70;99.60;;;;;;21064223;28;20417;-77
2021/03/12 14:42:16;;;;;;;3.97;0.90;;;13.00;97.70;;;;;;21047540;28;20028;-77
2021/03/12 14:52:17;;;;;;;2.20;0.75;;;12.90;97.90;;;;;;21069442;28;20034;-78
2021/03/12 15:02:18;;;;;;;2.83;0.60;;;13.20;95.20;;;;;;21040853;28;20398;-78
2021/03/12 15:12:19;;;;;;;2.85;1.02;;;11.90;99.50;;;;;;21031846;28;20028;-77
2021/03/12 15:22:20;;;;;;;4.67;0.90;;;12.70;97.20;;;;;;21003387;28;20046;-76
2021/03/12 15:32:21;;;;;;;1.92;0.75;;;12.50;98.00;;;;;;21007592;28;20028;-76
2021/03/12 15:42:25;;;;;;;3.07;0.60;;;12.10;99.20;;;;;;21001175;28;20649;-78
2021/03/12 15:52:26;;;;;;;5.50;0.93;;;12.30;98.80;;;;;;21181325;22;20607;-76
2021/03/12 16:02:31;;;;;;;2.58;0.60;;;12.30;99.30;;;;;;21096138;28;20590;-76
2021/03/12 16:12:33;;;;;;;1.45;0.60;;;11.80;97.00;;;;;;21115613;28;20466;-77
2021/03/12 16:22:42;;;;;;;3.42;0.65;;;11.30;98.30;;;;;;21094368;28;20051;-76
2021/03/12 16:33:03;;;;;;;4.82;0.70;;;11.20;96.90;;;;;;21106926;28;20036;-76
2021/03/12 16:43:28;;;;;;;3.35;0.75;;;10.90;98.80;;;;;;21095820;28;20115;-75
2021/03/12 16:53:29;;;;;;;6.77;0.93;;;10.60;99.90;;;;;;21110436;28;20039;-76
2021/03/12 17:03:30;;;;;;;2.17;0.60;;;10.60;99.90;;;;;;21104757;28;20069;-77
2021/03/12 17:13:32;;;;;;;2.03;0.90;;;10.40;99.90;;;;;;21090670;28;20062;-75
2021/03/12 17:23:33;;;;;;;5.72;0.88;;;10.20;99.90;;;;;;21112352;28;20047;-77
2021/03/12 17:33:34;;;;;;;1.80;0.60;;;10.00;99.90;;;;;;21095239;28;20067;-77
2021/03/12 17:43:35;;;;;;;1.87;0.83;;;9.70;99.90;;;;;;21084227;28;20065;-77
2021/03/12 17:53:36;;;;;;;3.17;1.00;;;9.50;99.90;;;;;;21085067;28;20447;-77
2021/03/12 18:03:37;;;;;;;5.40;1.10;;;9.40;99.90;;;;;;21091171;28;20060;-78
2021/03/12 18:13:37;;;;;;;4.60;1.40;;;9.30;99.90;;;;;;21087172;28;20063;-78
2021/03/12 18:23:40;;;;;;;8.47;1.27;;;9.20;99.90;;;;;;21114307;28;20035;-77
2021/03/12 18:33:41;;;;;;;5.10;1.30;;;9.00;99.90;;;;;;21113811;28;20032;-77
2021/03/12 18:43:42;;;;;;;9.23;1.00;;;8.80;99.90;;;;;;21117536;28;20119;-77
2021/03/12 18:53:43;;;;;;;3.63;1.20;;;8.80;99.90;;;;;;21094068;28;20056;-76
2021/03/12 19:03:43;;;;;;;8.97;1.47;;;8.70;99.90;;;;;;21095693;28;20024;-76
2021/03/12 19:13:44;;;;;;;3.37;1.50;;;8.60;99.90;;;;;;21098078;28;20085;-76
2021/03/12 19:23:45;;;;;;;4.87;1.33;;;8.50;99.90;;;;;;21086135;28;20048;-77
2021/03/12 19:33:48;;;;;;;4.43;1.37;;;8.30;99.90;;;;;;21109272;28;20089;-76
2021/03/12 19:43:49;;;;;;;7.18;1.98;;;8.20;99.90;;;;;;21084533;28;20041;-76
2021/03/12 19:53:51;;;;;;;6.93;1.07;;;8.10;99.90;;;;;;21136818;28;20578;-77
2021/03/12 20:03:52;;;;;;;3.15;0.93;;;8.10;99.90;;;;;;21097121;28;20421;-76
2021/03/12 20:13:52;;;;;;;8.93;2.67;;;8.20;99.90;;;;;;21153697;28;20108;-76
2021/03/12 20:23:53;;;;;;;5.27;1.63;;;8.10;99.90;;;;;;21121725;28;20150;-76
2021/03/12 20:33:54;;;;;;;6.67;1.73;;;8.10;99.90;;;;;;21067281;28;20063;-76
2021/03/12 20:43:55;;;;;;;5.97;2.00;;;8.00;99.90;;;;;;21107851;28;20496;-76
2021/03/12 20:53:56;;;;;;;3.17;0.90;;;8.00;99.90;;;;;;21129809;28;20036;-76
2021/03/12 21:03:57;;;;;;;8.07;0.70;;;8.10;99.90;;;;;;21075364;28;20516;-76
2021/03/12 21:13:59;;;;;;;4.40;0.77;;;8.50;99.90;;;;;;21064875;28;20028;-76
2021/03/12 21:23:59;;;;;;;1.93;0.67;;;8.70;99.90;;;;;;21074913;28;20069;-76
2021/03/12 21:34:01;;;;;;;0.97;0.40;;;8.90;99.90;;;;;;21055998;28;20032;-77
2021/03/12 21:44:02;;;;;;;1.90;0.70;;;9.00;99.90;;;;;;21062470;28;20444;-76
2021/03/12 21:54:03;;;;;;;4.07;0.83;;;9.10;99.90;;;;;;21068773;23;20082;-78
2021/03/12 22:04:04;;;;;;;3.80;1.10;;;9.20;99.90;;;;;;20954150;28;20036;-79
2021/03/12 22:14:05;;;;;;;2.60;0.70;;;9.20;99.90;;;;;;20955420;28;20063;-78
2021/03/12 22:24:07;;;;;;;1.37;0.40;;;9.10;99.90;;;;;;20937433;28;20040;-79
2021/03/12 22:34:09;;;;;;;3.90;0.70;;;9.20;99.90;;;;;;20952790;28;20426;-77
2021/03/12 22:44:12;;;;;;;2.00;0.70;;;9.20;99.90;;;;;;20951902;28;20040;-77
2021/03/12 22:54:13;;;;;;;1.52;0.50;;;9.10;99.90;;;;;;20928339;28;20475;-79
2021/03/12 23:04:14;;;;;;;6.43;0.53;;;8.80;99.90;;;;;;20912071;28;20056;-78
2021/03/12 23:14:14;;;;;;;1.40;0.47;;;8.60;99.90;;;;;;20949150;28;20465;-79
2021/03/12 23:24:19;;;;;;;3.00;0.70;;;8.40;99.90;;;;;;20960315;28;20032;-79
2021/03/12 23:34:20;;;;;;;1.38;0.50;;;8.40;99.90;;;;;;20934198;28;20052;-77
2021/03/12 23:44:21;;;;;;;2.63;0.60;;;8.40;99.90;;;;;;20922668;28;20036;-78
2021/03/12 23:54:22;;;;;;;2.33;0.60;;;8.40;99.90;;;;;;20973774;28;20055;-80
